sensor_id;sensor_type;location;lat;lon;timestamp;pressure;altitude;pressure_sealevel;temperature
77789;BMP280;66980;44.384;0.512;2023-02-28T00:02:20;101874.47;;;21.84
77789;BMP280;66980;44.384;0.512;2023-02-28T00:04:46;101874.25;;;21.82
77789;BMP280;66980;44.384;0.512;2023-02-28T00:07:26;101878.09;;;21.79
77789;BMP280;66980;44.384;0.512;2023-02-28T00:09:53;101876.94;;;21.74
77789;BMP280;66980;44.384;0.512;2023-02-28T00:12:18;101884.06;;;21.69
77789;BMP280;66980;44.384;0.512;2023-02-28T00:14:43;101881.84;;;21.68
77789;BMP280;66980;44.384;0.512;2023-02-28T00:17:09;101883.22;;;21.61
77789;BMP280;66980;44.384;0.512;2023-02-28T00:19:34;101882.28;;;21.59
77789;BMP280;66980;44.384;0.512;2023-02-28T00:22:00;101883.38;;;21.56
77789;BMP280;66980;44.384;0.512;2023-02-28T00:24:25;101886.97;;;21.51
77789;BMP280;66980;44.384;0.512;2023-02-28T00:26:51;101885.06;;;21.45
77789;BMP280;66980;44.384;0.512;2023-02-28T00:29:16;101888.88;;;21.42
77789;BMP280;66980;44.384;0.512;2023-02-28T00:31:42;101882.19;;;21.38
77789;BMP280;66980;44.384;0.512;2023-02-28T00:34:07;101886.78;;;21.35
77789;BMP280;66980;44.384;0.512;2023-02-28T00:36:33;101892.59;;;21.32
77789;BMP280;66980;44.384;0.512;2023-02-28T00:38:58;101887.94;;;21.27
77789;BMP280;66980;44.384;0.512;2023-02-28T00:41:24;101891.75;;;21.24
77789;BMP280;66980;44.384;0.512;2023-02-28T00:43:49;101881.66;;;21.13
77789;BMP280;66980;44.384;0.512;2023-02-28T00:46:15;101897.16;;;21.16
77789;BMP280;66980;44.384;0.512;2023-02-28T00:48:40;101905.75;;;21.12
77789;BMP280;66980;44.384;0.512;2023-02-28T00:51:06;101899.81;;;21.08
77789;BMP280;66980;44.384;0.512;2023-02-28T00:53:31;101892.59;;;21.05
77789;BMP280;66980;44.384;0.512;2023-02-28T00:55:58;101890.13;;;21.02
77789;BMP280;66980;44.384;0.512;2023-02-28T00:58:24;101894.69;;;20.99
77789;BMP280;66980;44.384;0.512;2023-02-28T01:00:51;101889.47;;;20.95
77789;BMP280;66980;44.384;0.512;2023-02-28T01:03:18;101888.31;;;20.91
77789;BMP280;66980;44.384;0.512;2023-02-28T01:05:45;101895.66;;;20.88
77789;BMP280;66980;44.384;0.512;2023-02-28T01:08:11;101898.72;;;20.85
77789;BMP280;66980;44.384;0.512;2023-02-28T01:10:36;101892.22;;;20.82
77789;BMP280;66980;44.384;0.512;2023-02-28T01:13:03;101894.00;;;20.80
77789;BMP280;66980;44.384;0.512;2023-02-28T01:15:29;101894.34;;;20.76
77789;BMP280;66980;44.384;0.512;2023-02-28T01:17:54;101904.44;;;20.74
77789;BMP280;66980;44.384;0.512;2023-02-28T01:20:20;101885.69;;;20.66
77789;BMP280;66980;44.384;0.512;2023-02-28T01:22:45;101897.47;;;20.67
77789;BMP280;66980;44.384;0.512;2023-02-28T01:25:12;101894.50;;;20.65
77789;BMP280;66980;44.384;0.512;2023-02-28T01:27:37;101901.06;;;20.62
77789;BMP280;66980;44.384;0.512;2023-02-28T01:30:05;101894.59;;;20.59
77789;BMP280;66980;44.384;0.512;2023-02-28T01:32:31;101890.13;;;20.56
77789;BMP280;66980;44.384;0.512;2023-02-28T01:34:57;101890.44;;;20.53
77789;BMP280;66980;44.384;0.512;2023-02-28T01:37:22;101899.25;;;20.51
77789;BMP280;66980;44.384;0.512;2023-02-28T01:39:48;101901.31;;;20.45
77789;BMP280;66980;44.384;0.512;2023-02-28T01:42:13;101893.78;;;20.45
77789;BMP280;66980;44.384;0.512;2023-02-28T01:47:27;101899.94;;;20.38
77789;BMP280;66980;44.384;0.512;2023-02-28T01:49:53;101897.47;;;20.35
77789;BMP280;66980;44.384;0.512;2023-02-28T01:52:19;101897.97;;;20.33
77789;BMP280;66980;44.384;0.512;2023-02-28T01:54:51;101898.31;;;20.30
77789;BMP280;66980;44.384;0.512;2023-02-28T01:57:20;101904.13;;;20.26
77789;BMP280;66980;44.384;0.512;2023-02-28T02:00:00;101903.88;;;20.24
77789;BMP280;66980;44.384;0.512;2023-02-28T02:02:30;101905.69;;;20.22
77789;BMP280;66980;44.384;0.512;2023-02-28T02:05:17;101903.72;;;20.16
77789;BMP280;66980;44.384;0.512;2023-02-28T02:07:46;101897.97;;;20.14
77789;BMP280;66980;44.384;0.512;2023-02-28T02:15:29;101898.38;;;20.05
77789;BMP280;66980;44.384;0.512;2023-02-28T02:17:58;101896.66;;;20.02
77789;BMP280;66980;44.384;0.512;2023-02-28T02:20:32;101909.47;;;20.00
77789;BMP280;66980;44.384;0.512;2023-02-28T02:26:23;101904.78;;;19.94
77789;BMP280;66980;44.384;0.512;2023-02-28T02:40:00;101899.47;;;19.78
77789;BMP280;66980;44.384;0.512;2023-02-28T02:45:19;101901.25;;;19.75
77789;BMP280;66980;44.384;0.512;2023-02-28T02:47:47;101904.09;;;19.69
77789;BMP280;66980;44.384;0.512;2023-02-28T02:50:17;101896.84;;;19.66
77789;BMP280;66980;44.384;0.512;2023-02-28T02:52:49;101898.66;;;19.64
77789;BMP280;66980;44.384;0.512;2023-02-28T02:55:17;101892.91;;;19.62
77789;BMP280;66980;44.384;0.512;2023-02-28T03:00:22;101894.97;;;19.56
77789;BMP280;66980;44.384;0.512;2023-02-28T03:02:49;101882.94;;;19.53
77789;BMP280;66980;44.384;0.512;2023-02-28T03:05:21;101885.56;;;19.45
77789;BMP280;66980;44.384;0.512;2023-02-28T03:07:49;101897.03;;;19.50
77789;BMP280;66980;44.384;0.512;2023-02-28T03:13:37;101899.34;;;19.45
77789;BMP280;66980;44.384;0.512;2023-02-28T03:15:53;101899.34;;;19.45
77789;BMP280;66980;44.384;0.512;2023-02-28T03:18:50;101893.88;;;19.40
77789;BMP280;66980;44.384;0.512;2023-02-28T03:24:10;101907.66;;;19.34
77789;BMP280;66980;44.384;0.512;2023-02-28T03:26:34;101908.72;;;19.31
77789;BMP280;66980;44.384;0.512;2023-02-28T03:31:52;101922.03;;;19.27
77789;BMP280;66980;44.384;0.512;2023-02-28T03:34:24;101921.06;;;19.25
77789;BMP280;66980;44.384;0.512;2023-02-28T03:36:55;101920.09;;;19.22
77789;BMP280;66980;44.384;0.512;2023-02-28T03:39:24;101918.34;;;19.19
77789;BMP280;66980;44.384;0.512;2023-02-28T03:41:56;101918.09;;;19.17
77789;BMP280;66980;44.384;0.512;2023-02-28T03:44:26;101924.88;;;19.16
77789;BMP280;66980;44.384;0.512;2023-02-28T03:47:03;101925.16;;;19.12
77789;BMP280;66980;44.384;0.512;2023-02-28T03:49:38;101916.69;;;19.10
77789;BMP280;66980;44.384;0.512;2023-02-28T03:52:08;101912.19;;;19.07
77789;BMP280;66980;44.384;0.512;2023-02-28T03:54:40;101915.47;;;19.06
77789;BMP280;66980;44.384;0.512;2023-02-28T03:57:27;101915.47;;;19.06
77789;BMP280;66980;44.384;0.512;2023-02-28T04:00:24;101913.50;;;19.01
77789;BMP280;66980;44.384;0.512;2023-02-28T04:02:46;101912.50;;;18.98
77789;BMP280;66980;44.384;0.512;2023-02-28T04:05:18;101911.53;;;18.95
77789;BMP280;66980;44.384;0.512;2023-02-28T04:07:44;101913.56;;;18.95
77789;BMP280;66980;44.384;0.512;2023-02-28T04:10:11;101915.34;;;18.92
77789;BMP280;66980;44.384;0.512;2023-02-28T04:12:37;101919.06;;;18.89
77789;BMP280;66980;44.384;0.512;2023-02-28T04:15:02;101922.09;;;18.86
77789;BMP280;66980;44.384;0.512;2023-02-28T04:17:28;101931.13;;;18.86
77789;BMP280;66980;44.384;0.512;2023-02-28T04:19:54;101927.66;;;18.80
77789;BMP280;66980;44.384;0.512;2023-02-28T04:22:22;101937.41;;;18.81
77789;BMP280;66980;44.384;0.512;2023-02-28T04:24:51;101935.69;;;18.78
77789;BMP280;66980;44.384;0.512;2023-02-28T04:27:16;101939.69;;;18.77
77789;BMP280;66980;44.384;0.512;2023-02-28T04:29:42;101936.69;;;18.75
77789;BMP280;66980;44.384;0.512;2023-02-28T04:32:10;101944.72;;;18.73
77789;BMP280;66980;44.384;0.512;2023-02-28T04:34:35;101953.97;;;18.70
77789;BMP280;66980;44.384;0.512;2023-02-28T04:37:01;101946.03;;;18.61
77789;BMP280;66980;44.384;0.512;2023-02-28T04:39:28;101962.50;;;18.66
77789;BMP280;66980;44.384;0.512;2023-02-28T04:41:53;101956.78;;;18.64
77789;BMP280;66980;44.384;0.512;2023-02-28T04:44:19;101961.28;;;18.62
77789;BMP280;66980;44.384;0.512;2023-02-28T04:46:47;101957.56;;;18.59
77789;BMP280;66980;44.384;0.512;2023-02-28T04:49:13;101960.06;;;18.57
77789;BMP280;66980;44.384;0.512;2023-02-28T04:51:39;101962.59;;;18.55
77789;BMP280;66980;44.384;0.512;2023-02-28T04:54:04;101969.06;;;18.52
77789;BMP280;66980;44.384;0.512;2023-02-28T04:56:30;101967.56;;;18.51
77789;BMP280;66980;44.384;0.512;2023-02-28T04:58:55;101963.84;;;18.49
77789;BMP280;66980;44.384;0.512;2023-02-28T05:01:26;101962.88;;;18.46
77789;BMP280;66980;44.384;0.512;2023-02-28T05:03:54;101957.13;;;18.44
77789;BMP280;66980;44.384;0.512;2023-02-28T05:06:20;101957.13;;;18.44
77789;BMP280;66980;44.384;0.512;2023-02-28T05:08:46;101955.88;;;18.39
77789;BMP280;66980;44.384;0.512;2023-02-28T05:11:32;101960.38;;;18.37
77789;BMP280;66980;44.384;0.512;2023-02-28T05:14:05;101957.41;;;18.35
77789;BMP280;66980;44.384;0.512;2023-02-28T05:16:31;101958.66;;;18.34
77789;BMP280;66980;44.384;0.512;2023-02-28T05:18:57;101955.44;;;18.30
77789;BMP280;66980;44.384;0.512;2023-02-28T05:23:52;101964.66;;;18.27
77789;BMP280;66980;44.384;0.512;2023-02-28T05:26:18;101969.19;;;18.24
77789;BMP280;66980;44.384;0.512;2023-02-28T05:28:43;101970.47;;;18.23
77789;BMP280;66980;44.384;0.512;2023-02-28T05:31:13;101970.97;;;18.21
77789;BMP280;66980;44.384;0.512;2023-02-28T05:33:38;101971.47;;;18.20
77789;BMP280;66980;44.384;0.512;2023-02-28T05:36:05;101976.69;;;18.18
77789;BMP280;66980;44.384;0.512;2023-02-28T05:38:30;101980.47;;;18.15
77789;BMP280;66980;44.384;0.512;2023-02-28T05:40:56;101987.72;;;18.12
77789;BMP280;66980;44.384;0.512;2023-02-28T05:43:22;101980.00;;;18.11
77789;BMP280;66980;44.384;0.512;2023-02-28T05:45:47;101990.72;;;18.09
77789;BMP280;66980;44.384;0.512;2023-02-28T05:48:13;101989.75;;;18.06
77789;BMP280;66980;44.384;0.512;2023-02-28T05:50:38;101990.25;;;18.05
77789;BMP280;66980;44.384;0.512;2023-02-28T05:53:04;101980.50;;;18.04
77789;BMP280;66980;44.384;0.512;2023-02-28T05:55:29;101987.28;;;18.03
77789;BMP280;66980;44.384;0.512;2023-02-28T05:57:55;101994.25;;;17.98
77789;BMP280;66980;44.384;0.512;2023-02-28T06:00:21;102000.50;;;17.98
77789;BMP280;66980;44.384;0.512;2023-02-28T06:02:47;101998.25;;;17.97
77789;BMP280;66980;44.384;0.512;2023-02-28T06:05:15;102005.97;;;17.93
77789;BMP280;66980;44.384;0.512;2023-02-28T06:07:40;102004.53;;;17.92
77789;BMP280;66980;44.384;0.512;2023-02-28T06:10:06;102005.50;;;17.89
77789;BMP280;66980;44.384;0.512;2023-02-28T06:12:32;102007.00;;;17.84
77789;BMP280;66980;44.384;0.512;2023-02-28T06:14:57;102009.28;;;17.86
77789;BMP280;66980;44.384;0.512;2023-02-28T06:17:23;102010.50;;;17.85
77789;BMP280;66980;44.384;0.512;2023-02-28T06:19:48;102006.78;;;17.82
77789;BMP280;66980;44.384;0.512;2023-02-28T06:22:14;102011.00;;;17.83
77789;BMP280;66980;44.384;0.512;2023-02-28T06:24:39;102010.28;;;17.83
77789;BMP280;66980;44.384;0.512;2023-02-28T06:27:05;102009.03;;;17.78
77789;BMP280;66980;44.384;0.512;2023-02-28T06:29:32;102008.28;;;17.78
77789;BMP280;66980;44.384;0.512;2023-02-28T06:31:57;102000.78;;;17.78
77789;BMP280;66980;44.384;0.512;2023-02-28T06:34:23;102000.78;;;17.78
77789;BMP280;66980;44.384;0.512;2023-02-28T06:36:50;102008.28;;;17.78
77789;BMP280;66980;44.384;0.512;2023-02-28T06:39:16;102007.28;;;17.75
77789;BMP280;66980;44.384;0.512;2023-02-28T06:41:42;102001.31;;;17.77
77789;BMP280;66980;44.384;0.512;2023-02-28T06:44:15;102011.03;;;17.72
77789;BMP280;66980;44.384;0.512;2023-02-28T06:46:42;102006.78;;;17.71
77789;BMP280;66980;44.384;0.512;2023-02-28T06:49:08;102005.53;;;17.72
77789;BMP280;66980;44.384;0.512;2023-02-28T06:51:35;102008.78;;;17.82
77789;BMP280;66980;44.384;0.512;2023-02-28T06:54:01;102002.97;;;18.08
77789;BMP280;66980;44.384;0.512;2023-02-28T06:56:26;102016.69;;;18.13
77789;BMP280;66980;44.384;0.512;2023-02-28T06:58:52;102011.47;;;18.21
77789;BMP280;66980;44.384;0.512;2023-02-28T07:01:21;102020.13;;;18.36
77789;BMP280;66980;44.384;0.512;2023-02-28T07:03:48;102018.81;;;18.60
77789;BMP280;66980;44.384;0.512;2023-02-28T07:06:23;102026.69;;;18.80
77789;BMP280;66980;44.384;0.512;2023-02-28T07:08:52;102021.50;;;19.07
77789;BMP280;66980;44.384;0.512;2023-02-28T07:11:19;102029.97;;;19.20
77789;BMP280;66980;44.384;0.512;2023-02-28T07:13:44;102021.53;;;19.42
77789;BMP280;66980;44.384;0.512;2023-02-28T07:16:12;102030.63;;;19.62
77789;BMP280;66980;44.384;0.512;2023-02-28T07:18:37;102033.50;;;19.75
77789;BMP280;66980;44.384;0.512;2023-02-28T07:21:08;102033.84;;;19.90
77789;BMP280;66980;44.384;0.512;2023-02-28T07:23:34;102036.19;;;20.05
77789;BMP280;66980;44.384;0.512;2023-02-28T07:25:59;102038.09;;;20.16
77789;BMP280;66980;44.384;0.512;2023-02-28T07:28:25;102030.72;;;20.24
77789;BMP280;66980;44.384;0.512;2023-02-28T07:30:51;102039.44;;;20.28
77789;BMP280;66980;44.384;0.512;2023-02-28T07:33:16;102032.16;;;20.31
77789;BMP280;66980;44.384;0.512;2023-02-28T07:35:42;102038.28;;;20.42
77789;BMP280;66980;44.384;0.512;2023-02-28T07:38:07;102045.44;;;20.51
77789;BMP280;66980;44.384;0.512;2023-02-28T07:40:35;102048.34;;;20.59
77789;BMP280;66980;44.384;0.512;2023-02-28T07:43:02;102045.16;;;20.55
77789;BMP280;66980;44.384;0.512;2023-02-28T07:45:28;102046.56;;;20.61
77789;BMP280;66980;44.384;0.512;2023-02-28T07:47:55;102047.75;;;20.66
77789;BMP280;66980;44.384;0.512;2023-02-28T07:50:21;102053.66;;;20.76
77789;BMP280;66980;44.384;0.512;2023-02-28T07:52:46;102045.28;;;20.81
77789;BMP280;66980;44.384;0.512;2023-02-28T07:55:12;102057.72;;;20.88
77789;BMP280;66980;44.384;0.512;2023-02-28T07:57:39;102055.41;;;20.92
77789;BMP280;66980;44.384;0.512;2023-02-28T08:00:07;102057.34;;;20.97
77789;BMP280;66980;44.384;0.512;2023-02-28T08:02:34;102059.06;;;21.00
77789;BMP280;66980;44.384;0.512;2023-02-28T08:05:00;102061.81;;;21.00
77789;BMP280;66980;44.384;0.512;2023-02-28T08:07:26;102057.81;;;21.01
77789;BMP280;66980;44.384;0.512;2023-02-28T08:09:51;102053.81;;;20.97
77789;BMP280;66980;44.384;0.512;2023-02-28T08:12:17;102069.19;;;21.11
77789;BMP280;66980;44.384;0.512;2023-02-28T08:14:42;102075.03;;;21.07
77789;BMP280;66980;44.384;0.512;2023-02-28T08:17:09;102078.53;;;21.08
77789;BMP280;66980;44.384;0.512;2023-02-28T08:19:35;102085.53;;;21.09
77789;BMP280;66980;44.384;0.512;2023-02-28T08:22:00;102085.84;;;21.05
77789;BMP280;66980;44.384;0.512;2023-02-28T08:24:26;102083.84;;;21.06
77789;BMP280;66980;44.384;0.512;2023-02-28T08:26:51;102083.84;;;21.06
77789;BMP280;66980;44.384;0.512;2023-02-28T08:29:17;102095.19;;;21.15
77789;BMP280;66980;44.384;0.512;2023-02-28T08:31:43;102101.34;;;21.27
77789;BMP280;66980;44.384;0.512;2023-02-28T08:34:12;102093.94;;;21.35
77789;BMP280;66980;44.384;0.512;2023-02-28T08:36:38;102095.44;;;21.50
77789;BMP280;66980;44.384;0.512;2023-02-28T08:39:06;102109.84;;;21.75
77789;BMP280;66980;44.384;0.512;2023-02-28T08:41:32;102104.53;;;21.90
77789;BMP280;66980;44.384;0.512;2023-02-28T08:43:58;102094.56;;;22.00
77789;BMP280;66980;44.384;0.512;2023-02-28T08:46:24;102086.47;;;22.15
77789;BMP280;66980;44.384;0.512;2023-02-28T08:48:54;102100.38;;;22.36
77789;BMP280;66980;44.384;0.512;2023-02-28T08:51:21;102094.09;;;22.49
77789;BMP280;66980;44.384;0.512;2023-02-28T08:53:57;102088.09;;;22.58
77789;BMP280;66980;44.384;0.512;2023-02-28T08:56:22;102088.28;;;22.74
77789;BMP280;66980;44.384;0.512;2023-02-28T08:58:49;102099.78;;;22.64
77789;BMP280;66980;44.384;0.512;2023-02-28T09:01:20;102100.34;;;22.50
77789;BMP280;66980;44.384;0.512;2023-02-28T09:03:47;102101.03;;;22.42
77789;BMP280;66980;44.384;0.512;2023-02-28T09:06:14;102098.25;;;22.42
77789;BMP280;66980;44.384;0.512;2023-02-28T09:08:40;102091.13;;;22.47
77789;BMP280;66980;44.384;0.512;2023-02-28T09:11:06;102098.75;;;22.54
77789;BMP280;66980;44.384;0.512;2023-02-28T09:13:32;102093.09;;;22.60
77789;BMP280;66980;44.384;0.512;2023-02-28T09:15:59;102090.75;;;22.64
77789;BMP280;66980;44.384;0.512;2023-02-28T09:18:26;102099.25;;;22.66
77789;BMP280;66980;44.384;0.512;2023-02-28T09:20:52;102089.88;;;22.69
77789;BMP280;66980;44.384;0.512;2023-02-28T09:23:17;102094.16;;;22.70
77789;BMP280;66980;44.384;0.512;2023-02-28T09:25:47;102100.28;;;22.76
77789;BMP280;66980;44.384;0.512;2023-02-28T09:28:14;102089.97;;;22.77
77789;BMP280;66980;44.384;0.512;2023-02-28T09:30:50;102090.47;;;22.75
77789;BMP280;66980;44.384;0.512;2023-02-28T09:33:17;102097.19;;;22.80
77789;BMP280;66980;44.384;0.512;2023-02-28T09:35:46;102099.44;;;22.81
77789;BMP280;66980;44.384;0.512;2023-02-28T09:38:11;102100.94;;;22.82
77789;BMP280;66980;44.384;0.512;2023-02-28T09:40:44;102104.75;;;22.79
77789;BMP280;66980;44.384;0.512;2023-02-28T09:43:14;102112.56;;;22.67
77789;BMP280;66980;44.384;0.512;2023-02-28T09:45:42;102109.06;;;22.67
77789;BMP280;66980;44.384;0.512;2023-02-28T09:48:17;102112.97;;;22.71
77789;BMP280;66980;44.384;0.512;2023-02-28T09:51:02;102107.25;;;22.56
77789;BMP280;66980;44.384;0.512;2023-02-28T09:53:34;102111.88;;;22.27
77789;BMP280;66980;44.384;0.512;2023-02-28T09:56:22;102105.22;;;21.96
77789;BMP280;66980;44.384;0.512;2023-02-28T10:04:43;102109.00;;;21.93
77789;BMP280;66980;44.384;0.512;2023-02-28T10:10:26;102113.38;;;22.02
77789;BMP280;66980;44.384;0.512;2023-02-28T10:12:55;102108.91;;;21.99
77789;BMP280;66980;44.384;0.512;2023-02-28T10:15:24;102104.44;;;21.95
77789;BMP280;66980;44.384;0.512;2023-02-28T10:17:55;102106.31;;;21.74
77789;BMP280;66980;44.384;0.512;2023-02-28T10:20:24;102102.25;;;21.62
77789;BMP280;66980;44.384;0.512;2023-02-28T10:23:02;102091.56;;;21.72
77789;BMP280;66980;44.384;0.512;2023-02-28T10:25:35;102101.75;;;21.77
77789;BMP280;66980;44.384;0.512;2023-02-28T10:28:09;102097.41;;;21.81
77789;BMP280;66980;44.384;0.512;2023-02-28T10:30:39;102100.84;;;21.87
77789;BMP280;66980;44.384;0.512;2023-02-28T10:33:05;102094.03;;;21.88
77789;BMP280;66980;44.384;0.512;2023-02-28T10:35:31;102093.72;;;21.92
77789;BMP280;66980;44.384;0.512;2023-02-28T10:38:00;102087.09;;;21.95
77789;BMP280;66980;44.384;0.512;2023-02-28T10:40:35;102093.25;;;22.01
77789;BMP280;66980;44.384;0.512;2023-02-28T10:45:38;102097.44;;;22.08
77789;BMP280;66980;44.384;0.512;2023-02-28T11:01:42;102102.72;;;21.34
77789;BMP280;66980;44.384;0.512;2023-02-28T11:07:20;102090.75;;;13.96
77789;BMP280;66980;44.384;0.512;2023-02-28T11:09:49;102097.47;;;16.46
77789;BMP280;66980;44.384;0.512;2023-02-28T11:12:37;102089.59;;;18.42
77789;BMP280;66980;44.384;0.512;2023-02-28T11:20:24;102092.28;;;20.32
77789;BMP280;66980;44.384;0.512;2023-02-28T11:22:50;102093.19;;;20.40
77789;BMP280;66980;44.384;0.512;2023-02-28T11:25:30;102093.53;;;20.56
77789;BMP280;66980;44.384;0.512;2023-02-28T11:28:02;102091.06;;;20.71
77789;BMP280;66980;44.384;0.512;2023-02-28T11:30:34;102081.03;;;20.74
77789;BMP280;66980;44.384;0.512;2023-02-28T11:33:00;102083.81;;;20.74
77789;BMP280;66980;44.384;0.512;2023-02-28T11:35:36;102079.16;;;20.82
77789;BMP280;66980;44.384;0.512;2023-02-28T11:38:07;102092.66;;;20.85
77789;BMP280;66980;44.384;0.512;2023-02-28T11:43:40;102088.31;;;20.90
77789;BMP280;66980;44.384;0.512;2023-02-28T11:57:00;102079.94;;;21.14
77789;BMP280;66980;44.384;0.512;2023-02-28T11:59:56;102079.94;;;21.14
77789;BMP280;66980;44.384;0.512;2023-02-28T12:11:06;102066.34;;;21.16
77789;BMP280;66980;44.384;0.512;2023-02-28T12:16:21;102053.34;;;21.11
77789;BMP280;66980;44.384;0.512;2023-02-28T12:18:55;102056.34;;;21.13
77789;BMP280;66980;44.384;0.512;2023-02-28T12:26:41;102051.66;;;21.08
77789;BMP280;66980;44.384;0.512;2023-02-28T12:29:23;102038.81;;;21.11
77789;BMP280;66980;44.384;0.512;2023-02-28T12:32:36;102045.38;;;21.08
77789;BMP280;66980;44.384;0.512;2023-02-28T12:35:25;102028.38;;;21.04
77789;BMP280;66980;44.384;0.512;2023-02-28T12:37:57;102037.94;;;21.03
77789;BMP280;66980;44.384;0.512;2023-02-28T12:40:32;102025.84;;;21.06
77789;BMP280;66980;44.384;0.512;2023-02-28T12:43:03;102013.22;;;21.10
77789;BMP280;66980;44.384;0.512;2023-02-28T12:45:41;102007.56;;;21.03
77789;BMP280;66980;44.384;0.512;2023-02-28T12:48:11;102016.91;;;21.00
77789;BMP280;66980;44.384;0.512;2023-02-28T12:50:40;102010.72;;;20.93
77789;BMP280;66980;44.384;0.512;2023-02-28T12:53:10;102010.00;;;20.93
77789;BMP280;66980;44.384;0.512;2023-02-28T13:09:38;101995.06;;;21.15
77789;BMP280;66980;44.384;0.512;2023-02-28T13:12:15;101996.38;;;21.27
77789;BMP280;66980;44.384;0.512;2023-02-28T13:14:41;101990.00;;;21.32
77789;BMP280;66980;44.384;0.512;2023-02-28T13:19:55;101975.34;;;21.24
77789;BMP280;66980;44.384;0.512;2023-02-28T13:24:55;101987.66;;;21.36
77789;BMP280;66980;44.384;0.512;2023-02-28T13:30:00;101986.31;;;21.43
77789;BMP280;66980;44.384;0.512;2023-02-28T13:40:06;101983.44;;;21.62
77789;BMP280;66980;44.384;0.512;2023-02-28T13:42:54;101982.06;;;21.68
77789;BMP280;66980;44.384;0.512;2023-02-28T13:45:23;101979.09;;;21.80
77789;BMP280;66980;44.384;0.512;2023-02-28T13:48:02;101975.66;;;21.87
77789;BMP280;66980;44.384;0.512;2023-02-28T13:50:33;101970.66;;;21.99
77789;BMP280;66980;44.384;0.512;2023-02-28T14:06:55;101972.47;;;22.43
77789;BMP280;66980;44.384;0.512;2023-02-28T14:09:27;101982.09;;;22.50
77789;BMP280;66980;44.384;0.512;2023-02-28T14:11:53;101977.53;;;22.53
77789;BMP280;66980;44.384;0.512;2023-02-28T14:17:07;101965.59;;;22.58
77789;BMP280;66980;44.384;0.512;2023-02-28T14:19:36;101972.06;;;22.60
77789;BMP280;66980;44.384;0.512;2023-02-28T14:25:10;101960.47;;;22.62
77789;BMP280;66980;44.384;0.512;2023-02-28T14:36:04;101977.47;;;22.66
77789;BMP280;66980;44.384;0.512;2023-02-28T14:38:36;101984.50;;;22.67
77789;BMP280;66980;44.384;0.512;2023-02-28T14:41:12;101980.97;;;22.66
77789;BMP280;66980;44.384;0.512;2023-02-28T14:43:51;101987.03;;;22.65
77789;BMP280;66980;44.384;0.512;2023-02-28T14:46:18;101974.31;;;22.62
77789;BMP280;66980;44.384;0.512;2023-02-28T14:48:49;101976.94;;;22.67
77789;BMP280;66980;44.384;0.512;2023-02-28T14:51:21;101981.91;;;22.69
77789;BMP280;66980;44.384;0.512;2023-02-28T14:53:50;101973.56;;;22.61
77789;BMP280;66980;44.384;0.512;2023-02-28T14:56:21;101976.66;;;22.58
77789;BMP280;66980;44.384;0.512;2023-02-28T14:58:52;101982.94;;;22.58
77789;BMP280;66980;44.384;0.512;2023-02-28T15:01:20;101980.31;;;22.53
77789;BMP280;66980;44.384;0.512;2023-02-28T15:03:48;101973.81;;;22.50
77789;BMP280;66980;44.384;0.512;2023-02-28T15:06:21;101978.94;;;22.46
77789;BMP280;66980;44.384;0.512;2023-02-28T15:09:15;101978.41;;;22.48
77789;BMP280;66980;44.384;0.512;2023-02-28T15:11:42;101976.72;;;22.44
77789;BMP280;66980;44.384;0.512;2023-02-28T15:14:18;101976.84;;;22.39
77789;BMP280;66980;44.384;0.512;2023-02-28T15:16:46;101984.91;;;22.37
77789;BMP280;66980;44.384;0.512;2023-02-28T15:19:28;101984.91;;;22.37
77789;BMP280;66980;44.384;0.512;2023-02-28T15:22:01;101980.69;;;22.36
77789;BMP280;66980;44.384;0.512;2023-02-28T15:24:44;101974.75;;;22.32
77789;BMP280;66980;44.384;0.512;2023-02-28T15:27:15;101981.31;;;22.29
77789;BMP280;66980;44.384;0.512;2023-02-28T15:29:48;101974.03;;;22.05
77789;BMP280;66980;44.384;0.512;2023-02-28T15:32:34;101983.97;;;22.00
77789;BMP280;66980;44.384;0.512;2023-02-28T15:35:19;101984.94;;;21.89
77789;BMP280;66980;44.384;0.512;2023-02-28T15:37:56;101985.38;;;21.80
77789;BMP280;66980;44.384;0.512;2023-02-28T15:40:42;101985.38;;;21.80
77789;BMP280;66980;44.384;0.512;2023-02-28T15:43:18;101997.34;;;21.83
77789;BMP280;66980;44.384;0.512;2023-02-28T15:46:10;101986.00;;;21.86
77789;BMP280;66980;44.384;0.512;2023-02-28T15:48:57;101986.41;;;21.90
77789;BMP280;66980;44.384;0.512;2023-02-28T15:51:41;101986.31;;;21.96
77789;BMP280;66980;44.384;0.512;2023-02-28T15:54:11;101995.22;;;22.02
77789;BMP280;66980;44.384;0.512;2023-02-28T15:56:53;101990.63;;;22.05
77789;BMP280;66980;44.384;0.512;2023-02-28T15:59:28;101997.88;;;22.08
77789;BMP280;66980;44.384;0.512;2023-02-28T16:04:36;102004.56;;;22.12
77789;BMP280;66980;44.384;0.512;2023-02-28T16:07:04;101999.03;;;22.12
77789;BMP280;66980;44.384;0.512;2023-02-28T16:09:30;101995.53;;;22.12
77789;BMP280;66980;44.384;0.512;2023-02-28T16:11:59;101999.03;;;22.12
77789;BMP280;66980;44.384;0.512;2023-02-28T16:14:27;102003.28;;;22.13
77789;BMP280;66980;44.384;0.512;2023-02-28T16:16:57;101995.31;;;22.10
77789;BMP280;66980;44.384;0.512;2023-02-28T16:19:27;101996.81;;;22.11
77789;BMP280;66980;44.384;0.512;2023-02-28T16:21:53;102006.38;;;22.10
77789;BMP280;66980;44.384;0.512;2023-02-28T16:24:18;102004.69;;;22.07
77789;BMP280;66980;44.384;0.512;2023-02-28T16:26:49;102005.63;;;22.09
77789;BMP280;66980;44.384;0.512;2023-02-28T16:31:48;101992.28;;;22.00
77789;BMP280;66980;44.384;0.512;2023-02-28T16:34:13;101996.50;;;22.01
77789;BMP280;66980;44.384;0.512;2023-02-28T16:36:39;101996.72;;;22.03
77789;BMP280;66980;44.384;0.512;2023-02-28T16:39:06;102004.25;;;22.03
77789;BMP280;66980;44.384;0.512;2023-02-28T16:41:33;102002.69;;;21.94
77789;BMP280;66980;44.384;0.512;2023-02-28T16:43:59;102000.34;;;21.98
77789;BMP280;66980;44.384;0.512;2023-02-28T16:46:32;102014.38;;;22.00
77789;BMP280;66980;44.384;0.512;2023-02-28T16:48:58;102012.56;;;22.03
77789;BMP280;66980;44.384;0.512;2023-02-28T16:51:24;102020.00;;;22.08
77789;BMP280;66980;44.384;0.512;2023-02-28T16:53:49;102009.88;;;22.10
77789;BMP280;66980;44.384;0.512;2023-02-28T16:56:19;102018.16;;;22.10